createdAt,value
2019-01-23T00:01:42.640Z,28.60
2019-01-23T00:03:44.305Z,29.18
2019-01-23T00:05:45.955Z,29.50
2019-01-23T00:07:47.914Z,28.80
2019-01-23T00:09:49.610Z,31.55
2019-01-23T00:11:51.286Z,27.80
2019-01-23T00:13:52.943Z,31.07
2019-01-23T00:15:54.602Z,30.72
2019-01-23T00:17:56.575Z,31.00
2019-01-23T00:19:58.588Z,29.32
2019-01-23T00:22:00.290Z,29.98
2019-01-23T00:24:02.049Z,30.43
2019-01-23T00:26:03.709Z,30.57
2019-01-23T00:28:05.369Z,31.80
2019-01-23T00:30:07.064Z,30.70
2019-01-23T00:32:08.714Z,31.05
2019-01-23T00:34:10.383Z,30.25
2019-01-23T00:36:12.364Z,30.15
2019-01-23T00:38:14.325Z,30.92
2019-01-23T00:40:15.997Z,32.10
2019-01-23T00:42:18.470Z,30.15
2019-01-23T00:44:20.124Z,30.65
2019-01-23T00:46:21.768Z,31.20
2019-01-23T00:48:23.426Z,31.80
2019-01-23T00:50:25.082Z,27.00
2019-01-23T00:52:26.770Z,31.73
2019-01-23T00:54:28.703Z,30.95
2019-01-23T00:56:30.352Z,31.30
2019-01-23T00:58:32.004Z,29.55
2019-01-23T01:00:34.033Z,28.32
2019-01-23T01:02:35.673Z,29.85
2019-01-23T01:04:37.333Z,31.07
2019-01-23T01:06:39.011Z,31.80
2019-01-23T01:08:40.657Z,29.72
2019-01-23T01:10:42.322Z,30.43
2019-01-23T01:12:43.973Z,30.10
2019-01-23T01:14:46.199Z,29.42
2019-01-23T01:16:47.868Z,33.20
2019-01-23T01:18:49.525Z,31.10
2019-01-23T01:20:51.193Z,32.03
2019-01-23T01:22:52.849Z,30.57
2019-01-23T01:24:54.509Z,31.25
2019-01-23T01:26:56.152Z,31.52
2019-01-23T01:28:58.103Z,28.23
2019-01-23T01:30:59.756Z,32.28
2019-01-23T01:33:01.410Z,30.25
2019-01-23T01:35:03.974Z,31.62
2019-01-23T01:37:05.620Z,33.58
2019-01-23T01:39:07.605Z,31.80
2019-01-23T01:41:09.269Z,30.25
2019-01-23T01:43:10.925Z,31.70
2019-01-23T01:45:13.252Z,28.83
2019-01-23T01:47:14.900Z,31.07
2019-01-23T01:49:16.544Z,30.70
2019-01-23T01:51:18.204Z,30.85
2019-01-23T01:53:19.853Z,32.05
2019-01-23T01:55:21.509Z,32.78
2019-01-23T01:57:23.444Z,33.13
2019-01-23T01:59:25.084Z,31.33
2019-01-23T02:01:26.753Z,32.40
2019-01-23T02:03:28.706Z,31.70
2019-01-23T02:05:30.385Z,32.17
2019-01-23T02:07:32.045Z,31.45
2019-01-23T02:09:35.621Z,33.67
2019-01-23T02:11:37.764Z,35.23
2019-01-23T02:13:39.429Z,33.92
2019-01-23T02:15:41.093Z,33.10
2019-01-23T02:17:42.753Z,33.88
2019-01-23T02:19:44.398Z,32.48
2019-01-23T02:21:46.051Z,33.85
2019-01-23T02:23:47.701Z,33.83
2019-01-23T02:25:49.366Z,31.68
2019-01-23T02:27:51.121Z,33.92
2019-01-23T02:29:52.784Z,35.68
2019-01-23T02:31:54.470Z,33.80
2019-01-23T02:33:56.174Z,33.45
2019-01-23T02:35:58.105Z,34.63
2019-01-23T02:37:59.751Z,33.40
2019-01-23T02:40:01.715Z,33.65
2019-01-23T02:42:03.669Z,36.95
2019-01-23T02:44:05.320Z,36.73
2019-01-23T02:46:06.989Z,33.10
2019-01-23T02:48:08.644Z,34.63
2019-01-23T02:50:10.341Z,35.17
2019-01-23T02:52:11.992Z,34.85
2019-01-23T02:54:13.646Z,35.78
2019-01-23T02:56:15.300Z,33.90
2019-01-23T02:58:16.950Z,33.65
2019-01-23T03:00:19.004Z,32.17
2019-01-23T03:02:20.645Z,35.35
2019-01-23T03:04:22.297Z,36.05
2019-01-23T03:06:23.968Z,33.42
2019-01-23T03:08:25.625Z,34.83
2019-01-23T03:10:27.293Z,33.02
2019-01-23T03:12:28.945Z,36.65
2019-01-23T03:14:30.588Z,33.75
2019-01-23T03:16:32.239Z,38.60
2019-01-23T03:18:33.893Z,34.48
2019-01-23T03:20:35.549Z,35.10
2019-01-23T03:22:37.208Z,36.40
2019-01-23T03:24:38.847Z,36.95
2019-01-23T03:26:40.517Z,36.15
2019-01-23T03:28:42.169Z,36.15
2019-01-23T03:30:43.856Z,35.00
2019-01-23T03:32:45.507Z,36.95
2019-01-23T03:34:47.161Z,36.40
2019-01-23T03:36:49.076Z,36.83
2019-01-23T03:38:50.746Z,35.60
2019-01-23T03:40:52.405Z,35.25
2019-01-23T03:42:54.333Z,35.30
2019-01-23T03:44:56.291Z,35.33
2019-01-23T03:46:57.954Z,33.98
2019-01-23T03:48:59.600Z,35.03
2019-01-23T03:51:01.257Z,34.65
2019-01-23T03:53:02.922Z,35.35
2019-01-23T03:55:05.003Z,35.88
2019-01-23T03:57:06.932Z,34.20
2019-01-23T03:59:08.582Z,35.95
2019-01-23T04:01:10.215Z,35.58
2019-01-23T04:03:11.876Z,35.90
2019-01-23T04:05:13.533Z,34.18
2019-01-23T04:07:15.196Z,35.17
2019-01-23T04:09:16.841Z,35.05
2019-01-23T04:11:18.498Z,36.65
2019-01-23T04:13:20.173Z,34.27
2019-01-23T04:15:21.826Z,35.80
2019-01-23T04:17:23.486Z,36.03
2019-01-23T04:19:25.134Z,36.10
2019-01-23T04:21:26.790Z,35.50
2019-01-23T04:23:28.445Z,35.85
2019-01-23T04:25:30.496Z,34.63
2019-01-23T04:27:32.166Z,37.33
2019-01-23T04:29:39.563Z,36.83
2019-01-23T04:31:37.371Z,34.98
2019-01-23T04:33:39.028Z,35.98
2019-01-23T04:35:40.956Z,35.50
2019-01-23T04:37:42.949Z,34.13
2019-01-23T04:39:44.664Z,34.65
2019-01-23T04:41:46.313Z,38.10
2019-01-23T04:43:47.989Z,35.25
2019-01-23T04:45:49.641Z,38.30
2019-01-23T04:47:51.309Z,35.90
2019-01-23T04:49:52.971Z,37.73
2019-01-23T04:52:09.526Z,39.90
2019-01-23T04:54:16.410Z,37.70
2019-01-23T04:56:18.067Z,37.98
2019-01-23T04:58:19.707Z,35.88
2019-01-23T05:00:23.498Z,35.50
2019-01-23T05:02:25.470Z,36.83
2019-01-23T05:04:27.128Z,35.50
2019-01-23T05:06:28.898Z,34.92
2019-01-23T05:08:30.555Z,35.00
2019-01-23T05:10:32.196Z,37.00
2019-01-23T05:12:34.142Z,35.58
2019-01-23T05:14:36.301Z,34.65
2019-01-23T05:16:38.563Z,33.63
2019-01-23T05:18:40.469Z,35.88
2019-01-23T05:20:42.123Z,35.20
2019-01-23T05:22:43.777Z,34.05
2019-01-23T05:24:45.441Z,35.98
2019-01-23T05:26:47.098Z,33.38
2019-01-23T05:28:48.765Z,35.15
2019-01-23T05:30:50.429Z,35.85
2019-01-23T05:32:52.416Z,33.63
2019-01-23T05:34:54.080Z,32.73
2019-01-23T05:36:55.724Z,33.08
2019-01-23T05:38:57.656Z,34.92
2019-01-23T05:40:59.305Z,37.42
2019-01-23T05:43:00.955Z,33.55
2019-01-23T05:45:02.999Z,31.85
2019-01-23T05:47:04.662Z,34.18
2019-01-23T05:49:06.640Z,35.10
2019-01-23T05:51:08.294Z,35.13
2019-01-23T05:53:09.941Z,36.05
2019-01-23T05:55:11.891Z,32.23
2019-01-23T05:57:13.541Z,33.38
2019-01-23T05:59:15.205Z,33.20
2019-01-23T06:01:17.369Z,33.15
2019-01-23T06:03:19.321Z,34.23
2019-01-23T06:05:21.287Z,34.67
2019-01-23T06:07:22.948Z,34.25
2019-01-23T06:09:24.611Z,33.92
2019-01-23T06:11:26.253Z,34.92
2019-01-23T06:13:27.905Z,35.25
2019-01-23T06:15:29.610Z,35.23
2019-01-23T06:17:31.313Z,32.88
2019-01-23T06:19:32.973Z,31.97
2019-01-23T06:21:34.624Z,33.13
2019-01-23T06:23:36.275Z,35.55
2019-01-23T06:25:37.951Z,34.85
2019-01-23T06:27:39.605Z,35.33
2019-01-23T06:29:41.264Z,35.55
2019-01-23T06:31:42.922Z,36.93
2019-01-23T06:33:44.589Z,36.68
2019-01-23T06:35:46.248Z,34.75
2019-01-23T06:37:47.903Z,34.58
2019-01-23T06:39:49.569Z,34.60
2019-01-23T06:41:51.245Z,33.18
2019-01-23T06:43:52.884Z,33.85
2019-01-23T06:45:54.548Z,32.40
2019-01-23T06:47:56.215Z,33.95
2019-01-23T06:49:58.906Z,40.58
2019-01-23T06:52:00.708Z,42.33
2019-01-23T06:54:02.362Z,33.73
2019-01-23T06:56:04.021Z,37.13
2019-01-23T06:58:05.668Z,34.38
2019-01-23T07:00:17.226Z,34.40
2019-01-23T07:02:19.217Z,32.88
2019-01-23T07:04:20.865Z,36.28
2019-01-23T07:06:22.539Z,33.00
2019-01-23T07:08:24.190Z,32.48
2019-01-23T07:10:25.849Z,34.48
2019-01-23T07:12:27.496Z,32.38
2019-01-23T07:14:29.172Z,35.30
2019-01-23T07:16:30.845Z,33.50
2019-01-23T07:18:32.822Z,32.85
2019-01-23T07:20:34.485Z,35.35
2019-01-23T07:22:36.416Z,37.93
2019-01-23T07:24:38.062Z,40.45
2019-01-23T07:26:39.722Z,36.77
2019-01-23T07:28:41.376Z,36.58
2019-01-23T07:30:43.048Z,32.95
2019-01-23T07:32:44.980Z,33.98
2019-01-23T07:34:46.625Z,35.28
2019-01-23T07:36:48.316Z,31.93
2019-01-23T07:38:49.961Z,33.28
2019-01-23T07:40:51.626Z,32.55
2019-01-23T07:42:53.281Z,37.17
2019-01-23T07:44:54.931Z,33.38
2019-01-23T07:46:56.594Z,34.90
2019-01-23T07:48:58.245Z,35.78
2019-01-23T07:50:59.909Z,32.70
2019-01-23T07:53:01.817Z,32.80
2019-01-23T07:55:05.116Z,34.30
2019-01-23T07:57:06.813Z,31.75
2019-01-23T07:59:09.887Z,34.90
2019-01-23T08:01:12.504Z,32.93
2019-01-23T08:03:14.161Z,34.78
2019-01-23T08:05:19.578Z,33.30
2019-01-23T08:07:21.524Z,30.45
2019-01-23T08:09:23.179Z,34.50
2019-01-23T08:11:24.845Z,34.55
2019-01-23T08:13:26.521Z,33.33
2019-01-23T08:15:30.345Z,31.68
2019-01-23T08:17:32.895Z,32.85
2019-01-23T08:19:35.057Z,32.38
2019-01-23T08:21:36.707Z,32.03
2019-01-23T08:23:38.673Z,31.10
2019-01-23T08:25:40.311Z,36.20
2019-01-23T08:27:42.040Z,34.85
2019-01-23T08:29:43.685Z,31.62
2019-01-23T08:31:45.349Z,31.70
2019-01-23T08:33:46.997Z,33.00
2019-01-23T08:35:48.642Z,32.85
2019-01-23T08:37:50.309Z,30.65
2019-01-23T08:39:51.958Z,33.80
2019-01-23T08:41:53.937Z,35.30
2019-01-23T08:43:55.884Z,31.50
2019-01-23T08:45:57.861Z,34.00
2019-01-23T08:47:59.508Z,32.40
2019-01-23T08:50:01.455Z,30.88
2019-01-23T08:52:03.116Z,29.57
2019-01-23T08:54:04.768Z,30.48
2019-01-23T08:56:06.429Z,28.42
2019-01-23T08:58:08.119Z,31.73
2019-01-23T09:00:10.124Z,32.67
2019-01-23T09:02:11.793Z,31.33
2019-01-23T09:04:13.440Z,32.65
2019-01-23T09:06:15.106Z,32.28
2019-01-23T09:08:16.869Z,30.92
2019-01-23T09:10:19.628Z,31.45
2019-01-23T09:12:21.294Z,33.20
2019-01-23T09:14:22.941Z,35.38
2019-01-23T09:16:24.595Z,31.00
2019-01-23T09:18:26.257Z,33.63
2019-01-23T09:20:28.209Z,31.80
2019-01-23T09:22:29.874Z,31.55
2019-01-23T09:24:31.525Z,29.72
2019-01-23T09:26:33.175Z,32.05
2019-01-23T09:28:34.840Z,29.80
2019-01-23T09:30:52.606Z,33.38
2019-01-23T09:33:20.148Z,30.05
2019-01-23T09:35:38.641Z,28.25
2019-01-23T09:38:25.539Z,30.40
2019-01-23T09:40:39.479Z,29.00
2019-01-23T09:43:29.765Z,30.65
2019-01-23T09:46:13.528Z,30.15
2019-01-23T09:49:12.776Z,32.28
2019-01-23T09:51:51.369Z,30.65
2019-01-23T09:54:13.698Z,27.13
2019-01-23T09:56:16.851Z,30.77
2019-01-23T09:58:18.501Z,31.77
2019-01-23T10:00:23.034Z,28.60
2019-01-23T10:02:24.963Z,30.20
2019-01-23T10:04:26.616Z,32.15
2019-01-23T10:06:28.272Z,31.70
2019-01-23T10:08:29.929Z,30.02
2019-01-23T10:10:31.585Z,30.60
2019-01-23T10:12:33.228Z,27.85
2019-01-23T10:14:34.879Z,27.42
2019-01-23T10:16:36.533Z,29.90
2019-01-23T10:18:38.197Z,29.35
2019-01-23T10:20:39.841Z,31.25
2019-01-23T10:22:41.494Z,30.12
2019-01-23T10:24:43.135Z,29.50
2019-01-23T10:26:44.825Z,30.88
2019-01-23T10:28:46.472Z,31.17
2019-01-23T10:30:48.115Z,31.62
2019-01-23T10:32:49.765Z,32.48
2019-01-23T10:34:51.425Z,32.13
2019-01-23T10:36:53.095Z,31.25
2019-01-23T10:38:54.754Z,30.02
2019-01-23T10:40:56.401Z,29.87
2019-01-23T10:42:58.057Z,30.17
2019-01-23T10:44:59.816Z,32.95
2019-01-23T10:47:01.507Z,34.80
2019-01-23T10:49:03.168Z,30.80
2019-01-23T10:51:04.813Z,28.60
2019-01-23T10:53:06.555Z,31.95
2019-01-23T10:55:08.216Z,28.98
2019-01-23T10:57:09.869Z,31.35
2019-01-23T10:59:11.523Z,29.77
2019-01-23T11:01:13.435Z,27.07
2019-01-23T11:03:15.746Z,29.20
2019-01-23T11:05:18.853Z,27.65
2019-01-23T11:07:20.517Z,30.62
2019-01-23T11:09:22.287Z,29.75
2019-01-23T11:11:23.996Z,30.08
2019-01-23T11:13:25.693Z,30.08
2019-01-23T11:15:27.339Z,31.00
2019-01-23T11:17:28.985Z,28.80
2019-01-23T11:19:30.895Z,31.73
2019-01-23T11:21:32.553Z,26.70
2019-01-23T11:23:34.209Z,30.15
2019-01-23T11:25:35.873Z,29.18
2019-01-23T11:27:37.537Z,25.52
2019-01-23T11:29:39.202Z,27.15
2019-01-23T11:31:40.877Z,28.92
2019-01-23T11:33:42.516Z,30.60
2019-01-23T11:35:44.173Z,30.40
2019-01-23T11:37:45.831Z,33.13
2019-01-23T11:39:47.492Z,30.27
2019-01-23T11:41:49.140Z,32.08
2019-01-23T11:43:51.232Z,26.33
2019-01-23T11:45:52.892Z,32.80
2019-01-23T11:47:54.585Z,33.75
2019-01-23T11:49:56.244Z,31.62
2019-01-23T11:51:57.899Z,33.92
2019-01-23T11:53:59.568Z,32.20
2019-01-23T11:56:01.233Z,31.48
2019-01-23T11:58:03.205Z,32.65
2019-01-23T12:00:08.760Z,34.03
2019-01-23T12:02:10.617Z,33.98
2019-01-23T12:04:12.558Z,32.53
2019-01-23T12:06:14.229Z,33.25
2019-01-23T12:08:15.872Z,34.95
2019-01-23T12:10:19.357Z,29.60
2019-01-23T12:12:21.271Z,29.98
2019-01-23T12:14:23.066Z,35.73
2019-01-23T12:16:24.716Z,34.73
2019-01-23T12:18:26.381Z,31.97
2019-01-23T12:20:28.050Z,34.48
2019-01-23T12:22:29.689Z,32.63
2019-01-23T12:24:31.353Z,35.95
2019-01-23T12:26:33.349Z,40.52
2019-01-23T12:28:35.007Z,33.78
2019-01-23T12:30:36.661Z,36.38
2019-01-23T12:32:38.300Z,34.38
2019-01-23T12:34:39.944Z,37.03
2019-01-23T12:36:41.601Z,37.05
2019-01-23T12:38:43.253Z,36.55
2019-01-23T12:40:45.147Z,40.85
2019-01-23T12:42:46.809Z,40.73
2019-01-23T12:44:48.464Z,37.85
2019-01-23T12:46:50.125Z,37.63
2019-01-23T12:48:51.776Z,39.48
2019-01-23T12:50:53.437Z,38.60
2019-01-23T12:52:55.370Z,38.80
2019-01-23T12:54:57.020Z,40.38
2019-01-23T12:56:58.671Z,36.35
2019-01-23T12:59:00.325Z,39.98
2019-01-23T13:01:01.996Z,36.98
2019-01-23T13:03:03.757Z,38.17
2019-01-23T13:05:07.541Z,35.43
2019-01-23T13:07:09.195Z,37.58
2019-01-23T13:09:10.953Z,35.20
2019-01-23T13:11:12.605Z,35.17
2019-01-23T13:13:14.540Z,38.10
2019-01-23T13:15:18.355Z,45.98
2019-01-23T13:17:20.020Z,39.33
2019-01-23T13:19:21.681Z,35.33
2019-01-23T13:21:23.346Z,36.08
2019-01-23T13:23:25.005Z,36.55
2019-01-23T13:25:27.674Z,32.80
2019-01-23T13:27:29.397Z,35.52
2019-01-23T13:29:31.341Z,35.38
2019-01-23T13:31:33.024Z,35.30
2019-01-23T13:33:34.709Z,36.48
2019-01-23T13:35:37.989Z,38.92
2019-01-23T13:37:39.653Z,36.53
2019-01-23T13:39:41.305Z,36.98
2019-01-23T13:41:42.968Z,36.90
2019-01-23T13:43:44.621Z,36.75
2019-01-23T13:45:46.281Z,35.38
2019-01-23T13:47:48.246Z,35.85
2019-01-23T13:49:49.896Z,32.60
2019-01-23T13:51:51.557Z,37.13
2019-01-23T13:53:53.213Z,33.90
2019-01-23T13:55:54.874Z,37.75
2019-01-23T13:57:56.529Z,34.15
2019-01-23T13:59:58.176Z,35.55
2019-01-23T14:02:00.116Z,32.48
2019-01-23T14:04:01.782Z,33.88
2019-01-23T14:06:03.463Z,37.17
2019-01-23T14:08:06.025Z,38.40
2019-01-23T14:10:09.817Z,37.33
2019-01-23T14:12:11.757Z,35.50
2019-01-23T14:14:13.403Z,34.58
2019-01-23T14:16:15.057Z,36.63
2019-01-23T14:18:16.711Z,36.95
2019-01-23T14:20:18.369Z,37.20
2019-01-23T14:22:20.053Z,37.65
2019-01-23T14:24:21.689Z,39.08
2019-01-23T14:26:23.625Z,36.98
2019-01-23T14:28:25.303Z,37.50
2019-01-23T14:30:29.405Z,35.95
2019-01-23T14:32:31.073Z,38.00
2019-01-23T14:34:32.729Z,38.98
2019-01-23T14:36:34.416Z,36.05
2019-01-23T14:38:36.169Z,36.68
2019-01-23T14:40:37.925Z,37.40
2019-01-23T14:42:39.588Z,37.28
2019-01-23T14:44:41.545Z,36.28
2019-01-23T14:46:43.197Z,37.70
2019-01-23T14:48:44.856Z,37.45
2019-01-23T14:50:46.513Z,37.67
2019-01-23T14:52:48.205Z,36.60
2019-01-23T14:54:49.853Z,48.73
2019-01-23T14:56:51.878Z,38.65
2019-01-23T14:58:53.532Z,39.42
2019-01-23T15:00:55.201Z,38.15
2019-01-23T15:02:56.853Z,36.42
2019-01-23T15:04:58.509Z,38.60
2019-01-23T15:07:00.445Z,35.88
2019-01-23T15:09:04.403Z,38.80
2019-01-23T15:11:06.058Z,42.00
2019-01-23T15:13:07.749Z,41.28
2019-01-23T15:15:09.412Z,41.02
2019-01-23T15:17:11.913Z,42.03
2019-01-23T15:19:13.580Z,44.80
2019-01-23T15:21:15.232Z,43.45
2019-01-23T15:23:16.894Z,45.12
2019-01-23T15:25:18.553Z,47.30
2019-01-23T15:27:20.222Z,48.55
2019-01-23T15:29:21.886Z,49.53
2019-01-23T15:31:23.527Z,48.13
2019-01-23T15:33:25.488Z,47.45
2019-01-23T15:35:27.144Z,48.92
2019-01-23T15:37:29.036Z,50.78
2019-01-23T15:39:30.681Z,50.33
2019-01-23T15:41:32.333Z,50.88
2019-01-23T15:43:34.265Z,50.20
2019-01-23T15:45:35.921Z,52.62
2019-01-23T15:47:37.572Z,49.27
2019-01-23T15:49:39.225Z,47.75
2019-01-23T15:51:40.868Z,52.78
2019-01-23T15:53:42.541Z,49.77
2019-01-23T15:55:44.246Z,52.03
2019-01-23T15:57:45.897Z,51.35
2019-01-23T15:59:47.558Z,45.58
2019-01-23T16:01:49.207Z,50.78
2019-01-23T16:03:50.955Z,51.20
2019-01-23T16:05:52.624Z,53.80
2019-01-23T16:07:54.593Z,51.35
2019-01-23T16:09:56.258Z,53.10
2019-01-23T16:11:57.914Z,53.45
2019-01-23T16:13:59.568Z,57.55
2019-01-23T16:16:01.516Z,56.05
2019-01-23T16:18:03.161Z,53.85
2019-01-23T16:20:05.317Z,54.58
2019-01-23T16:22:06.969Z,56.20
2019-01-23T16:24:08.645Z,54.10
2019-01-23T16:26:10.289Z,56.75
2019-01-23T16:28:11.943Z,57.45
2019-01-23T16:30:25.457Z,56.73
2019-01-23T16:32:31.431Z,57.45
2019-01-23T16:34:30.680Z,57.62
2019-01-23T16:36:32.333Z,60.20
2019-01-23T16:38:33.985Z,57.45
2019-01-23T16:40:35.649Z,65.92
2019-01-23T16:42:37.786Z,58.30
2019-01-23T16:44:39.857Z,59.35
2019-01-23T16:46:41.574Z,55.83
2019-01-23T16:48:43.271Z,53.78
2019-01-23T16:50:44.937Z,53.42
2019-01-23T16:52:46.590Z,63.05
2019-01-23T16:54:48.524Z,54.48
2019-01-23T16:56:50.181Z,58.48
2019-01-23T16:58:51.882Z,60.65
2019-01-23T17:00:53.554Z,57.95
2019-01-23T17:05:24.058Z,53.75
2019-01-23T17:07:26.023Z,52.70
2019-01-23T17:09:27.789Z,52.75
2019-01-23T17:11:29.537Z,58.87
2019-01-23T17:13:31.180Z,50.70
2019-01-23T17:15:32.832Z,49.13
2019-01-23T17:17:34.484Z,52.38
2019-01-23T17:19:36.141Z,52.65
2019-01-23T17:21:37.793Z,49.63
2019-01-23T17:23:39.681Z,53.68
2019-01-23T17:25:41.340Z,54.98
2019-01-23T17:27:43.031Z,51.68
2019-01-23T17:29:45.240Z,51.95
2019-01-23T17:31:46.897Z,60.65
2019-01-23T17:33:51.748Z,50.88
2019-01-23T17:35:53.489Z,54.88
2019-01-23T17:37:55.797Z,51.37
2019-01-23T17:39:57.806Z,55.15
2019-01-23T17:41:59.829Z,50.43
2019-01-23T17:44:01.848Z,47.33
2019-01-23T17:46:03.634Z,53.02
2019-01-23T17:48:07.660Z,57.50
2019-01-23T17:50:11.477Z,53.68
2019-01-23T17:52:13.119Z,49.38
2019-01-23T17:54:14.796Z,52.38
2019-01-23T17:56:16.589Z,49.83
2019-01-23T17:58:18.228Z,51.00
2019-01-23T18:00:23.623Z,54.93
2019-01-23T18:02:26.114Z,53.63
2019-01-23T18:04:27.792Z,51.73
2019-01-23T18:06:32.821Z,51.42
2019-01-23T18:08:35.161Z,53.52
2019-01-23T18:10:36.928Z,52.98
2019-01-23T18:12:38.590Z,48.17
2019-01-23T18:14:40.477Z,50.35
2019-01-23T18:16:42.348Z,47.40
2019-01-23T18:18:44.242Z,49.33
2019-01-23T18:20:46.025Z,45.50
2019-01-23T18:22:48.141Z,45.95
2019-01-23T18:24:49.797Z,48.52
2019-01-23T18:26:51.441Z,46.88
2019-01-23T18:28:53.093Z,49.10
2019-01-23T18:31:08.977Z,48.75
2019-01-23T18:33:12.075Z,47.48
2019-01-23T18:35:51.366Z,46.33
2019-01-23T18:38:17.335Z,44.15
2019-01-23T18:40:59.753Z,47.40
2019-01-23T18:43:37.621Z,43.58
2019-01-23T18:46:01.757Z,45.40
2019-01-23T18:48:25.470Z,44.60
2019-01-23T18:51:18.370Z,47.13
2019-01-23T18:53:20.324Z,39.98
2019-01-23T18:55:23.748Z,42.98
2019-01-23T18:57:26.540Z,43.68
2019-01-23T18:59:28.316Z,44.33
2019-01-23T19:01:29.977Z,48.60
2019-01-23T19:03:31.629Z,48.38
2019-01-23T19:05:33.282Z,46.10
2019-01-23T19:07:34.953Z,47.15
2019-01-23T19:09:36.609Z,45.98
2019-01-23T19:11:38.345Z,46.58
2019-01-23T19:13:39.991Z,43.23
2019-01-23T19:15:41.645Z,44.50
2019-01-23T19:17:43.372Z,45.48
2019-01-23T19:19:45.063Z,43.70
2019-01-23T19:21:47.057Z,44.73
2019-01-23T19:23:48.708Z,45.98
2019-01-23T19:25:51.216Z,44.15
2019-01-23T19:27:53.125Z,43.45
2019-01-23T19:29:54.776Z,46.80
2019-01-23T19:31:56.483Z,42.85
2019-01-23T19:33:58.146Z,45.58
2019-01-23T19:35:59.789Z,45.00
2019-01-23T19:38:01.490Z,45.00
2019-01-23T19:40:03.530Z,45.17
2019-01-23T19:42:05.200Z,43.23
2019-01-23T19:44:06.845Z,44.65
2019-01-23T19:46:08.493Z,47.30
2019-01-23T19:48:10.227Z,47.48
2019-01-23T19:50:12.557Z,44.15
2019-01-23T19:52:14.255Z,45.73
2019-01-23T19:54:15.989Z,37.42
2019-01-23T19:56:17.644Z,46.92
2019-01-23T19:58:19.305Z,44.23
2019-01-23T20:00:21.925Z,46.55
2019-01-23T20:02:23.589Z,47.23
2019-01-23T20:04:25.247Z,45.05
2019-01-23T20:06:26.913Z,46.42
2019-01-23T20:08:28.657Z,46.28
2019-01-23T20:10:30.301Z,47.55
2019-01-23T20:12:32.264Z,48.98
2019-01-23T20:14:33.916Z,50.17
2019-01-23T20:16:35.564Z,49.53
2019-01-23T20:18:37.237Z,50.70
2019-01-23T20:20:38.906Z,50.67
2019-01-23T20:22:40.672Z,53.08
2019-01-23T20:24:42.551Z,49.45
2019-01-23T20:26:44.271Z,48.65
2019-01-23T20:28:45.916Z,46.13
2019-01-23T20:30:47.565Z,36.63
2019-01-23T20:32:49.989Z,50.30
2019-01-23T20:34:52.230Z,47.73
2019-01-23T20:36:53.876Z,47.98
2019-01-23T20:38:55.537Z,50.65
2019-01-23T20:40:57.239Z,45.70
2019-01-23T20:43:01.345Z,48.85
2019-01-23T20:45:04.968Z,48.20
2019-01-23T20:47:06.620Z,51.58
2019-01-23T20:49:08.306Z,48.50
2019-01-23T20:51:09.939Z,44.25
2019-01-23T20:53:11.586Z,51.65
2019-01-23T20:55:13.228Z,48.38
2019-01-23T20:57:14.902Z,47.08
2019-01-23T20:59:16.586Z,31.33
2019-01-23T21:01:18.317Z,49.20
2019-01-23T21:03:19.985Z,47.80
2019-01-23T21:05:21.645Z,50.43
2019-01-23T21:07:23.447Z,55.20
2019-01-23T21:09:25.125Z,54.33
2019-01-23T21:11:26.784Z,52.55
2019-01-23T21:13:28.436Z,51.00
2019-01-23T21:15:31.131Z,56.48
2019-01-23T21:17:32.786Z,55.23
2019-01-23T21:19:34.436Z,54.48
2019-01-23T21:21:36.090Z,50.10
2019-01-23T21:23:37.748Z,53.70
2019-01-23T21:25:39.421Z,49.10
2019-01-23T21:27:41.365Z,53.38
2019-01-23T21:29:43.101Z,58.45
2019-01-23T21:31:44.744Z,55.12
2019-01-23T21:33:46.405Z,51.58
2019-01-23T21:35:48.132Z,54.95
2019-01-23T21:37:49.794Z,52.60
2019-01-23T21:39:52.620Z,52.80
2019-01-23T21:41:54.258Z,52.30
2019-01-23T21:43:55.906Z,46.35
2019-01-23T21:45:57.570Z,52.35
2019-01-23T21:47:59.213Z,48.70
2019-01-23T21:50:00.941Z,54.53
2019-01-23T21:52:02.640Z,52.38
2019-01-23T21:54:04.320Z,53.13
2019-01-23T21:56:05.976Z,49.85
2019-01-23T21:58:07.642Z,48.42
2019-01-23T22:00:13.109Z,48.63
2019-01-23T22:02:14.777Z,48.20
2019-01-23T22:04:16.461Z,48.30
2019-01-23T22:06:18.121Z,52.98
2019-01-23T22:08:19.776Z,49.83
2019-01-23T22:10:21.442Z,51.83
2019-01-23T22:12:23.085Z,50.60
2019-01-23T22:14:24.766Z,38.00
2019-01-23T22:16:26.437Z,48.73
2019-01-23T22:18:28.097Z,50.55
2019-01-23T22:20:29.757Z,42.55
2019-01-23T22:22:31.414Z,50.88
2019-01-23T22:24:33.060Z,48.10
2019-01-23T22:26:34.735Z,50.15
2019-01-23T22:28:36.417Z,48.05
2019-01-23T22:30:38.101Z,47.98
2019-01-23T22:32:39.761Z,50.98
2019-01-23T22:34:41.460Z,44.67
2019-01-23T22:36:43.133Z,42.67
2019-01-23T22:38:44.782Z,50.28
2019-01-23T22:40:46.439Z,52.03
2019-01-23T22:42:48.081Z,51.40
2019-01-23T22:44:49.843Z,49.88
2019-01-23T22:46:51.505Z,51.68
2019-01-23T22:48:53.213Z,54.83
2019-01-23T22:50:54.878Z,56.90
2019-01-23T22:52:56.524Z,57.70
2019-01-23T22:54:58.181Z,57.27
2019-01-23T22:57:00.137Z,62.27
2019-01-23T22:59:01.827Z,56.00
2019-01-23T23:01:20.365Z,65.00
2019-01-23T23:03:22.013Z,62.60
2019-01-23T23:05:24.025Z,58.65
2019-01-23T23:07:25.691Z,64.72
2019-01-23T23:09:28.169Z,56.10
2019-01-23T23:11:29.832Z,65.30
2019-01-23T23:13:31.471Z,58.63
2019-01-23T23:15:33.143Z,63.35
2019-01-23T23:17:34.798Z,65.60
2019-01-23T23:19:36.453Z,63.63
2019-01-23T23:21:38.112Z,36.08
2019-01-23T23:23:39.762Z,63.92
2019-01-23T23:25:41.468Z,63.83
2019-01-23T23:27:43.129Z,56.37
2019-01-23T23:29:44.808Z,59.73
2019-01-23T23:31:46.476Z,61.42
2019-01-23T23:33:48.163Z,66.87
2019-01-23T23:35:49.812Z,64.80
2019-01-23T23:37:51.468Z,63.38
2019-01-23T23:39:53.124Z,52.83
2019-01-23T23:41:54.809Z,60.92
2019-01-23T23:43:56.468Z,55.88
2019-01-23T23:45:58.130Z,57.83
2019-01-23T23:48:00.052Z,57.23
2019-01-23T23:50:01.715Z,59.58
2019-01-23T23:52:03.664Z,50.08
2019-01-23T23:54:05.328Z,64.82
2019-01-23T23:56:07.007Z,57.50
2019-01-23T23:58:08.657Z,61.00
